• Join FlightAware (Why Join?)
  • Login
  • US Flag 
10:25AM EST


 

Airport Tracker/Info


-or-


 

Live Flight TrackerFlight Track Log ✈ EJA831 ✈ 19-May-2013 ✈ KMKE - KOMA

Flight Track Log - Related Links

Times and Time Zones

All times are in EDT time to prevent confusion due to time zone crossing. See the EJA831 flight status page for this flight to view local times or setup timezone preferences in your user account.

Time Position Orientation Groundspeed Altitude Reporting Facility
EDT Latitude Longitude Course Direction KTS MPH feet Rate Location/Type
02:29PM 42.9500 -87.8833 315° West 171 197 1,400  Level KMKE
02:31PM 43.0136 -87.9714 315° West 240 276 8,600 3,000 Climbing Chicago Center
02:32PM 43.0156 -88.0611 272° West 234 269 11,600 2,640 Climbing Chicago Center
02:33PM 43.0183 -88.1833 272° West 274 315 14,100 2,460 Climbing Chicago Center
02:34PM 43.0175 -88.2975 269° West 297 342 16,800 2,640 Climbing Chicago Center
02:35PM 43.0161 -88.4158 269° West 307 353 19,600 2,220 Climbing Chicago Center
02:36PM 43.0158 -88.5350 270° West 311 358 21,500 1,860 Climbing Chicago Center
02:37PM 43.0142 -88.6594 269° West 322 371 23,500 1,800 Climbing Chicago Center
02:38PM 43.0128 -88.7889 269° West 334 384 25,300 1,740 Climbing Chicago Center
02:40PM 43.0097 -88.9433 269° West 344 396 27,100 1,680 Climbing Chicago Center
02:41PM 43.0075 -89.0792 269° West 353 406 28,800 1,500 Climbing Chicago Center
02:42PM 43.0061 -89.2161 269° West 357 411 30,200 1,320 Climbing Chicago Center
02:43PM 43.0022 -89.3564 268° West 367 422 31,600 1,140 Climbing Chicago Center
02:44PM 43.0000 -89.5006 269° West 375 432 32,600 1,140 Climbing Chicago Center
02:45PM 42.9956 -89.6514 268° West 393 452 34,000 1,620 Climbing Chicago Center
02:46PM 42.9978 -89.8122 271° West 364 419 36,000 960 Climbing Chicago Center
02:47PM 42.9811 -89.9547 261° West 378 435 36,000  Level Chicago Center
02:48PM 42.9522 -90.0892 254° West 374 430 36,000  Level Chicago Center
02:49PM 42.9222 -90.2214 253° West 370 426 36,000  Level Chicago Center
02:50PM 42.8950 -90.3553 255° West 370 426 36,000  Level Chicago Center
02:51PM 42.8642 -90.4897 253° West 373 429 36,000  Level Chicago Center
02:52PM 42.8258 -90.6572 253° West 387 445 36,000  Level Chicago Center
02:53PM 42.7942 -90.7972 253° West 389 448 36,000  Level Chicago Center
02:54PM 42.7625 -90.9322 252° West 381 438 36,000  Level Chicago Center
02:55PM 42.7325 -91.0672 253° West 377 434 36,000  Level Chicago Center
02:56PM 42.7014 -91.1992 252° West 371 427 36,000  Level Chicago Center
02:57PM 42.6642 -91.3581 252° West 368 423 36,000  Level Chicago Center
02:58PM 42.6378 -91.4639 251° West 369 425 36,000  Level Minneapolis Center
02:59PM 42.6008 -91.6247 253° West 368 423 36,000  Level Chicago Center
03:00PM 42.5706 -91.7567 253° West 366 421 36,000  Level Chicago Center
03:01PM 42.5386 -91.8883 252° West 367 422 36,000  Level Chicago Center
03:02PM 42.5014 -92.0439 252° West 364 419 36,000  Level Chicago Center
03:03PM 42.4706 -92.1722 252° West 361 415 36,000  Level Chicago Center
03:04PM 42.4389 -92.3022 252° West 366 421 36,000 -300 Level Chicago Center
03:05PM 42.4064 -92.4333 251° West 369 425 35,400 -780 Descending Chicago Center
03:06PM 42.3800 -92.5433 252° West 376 433 34,600 -780 Descending Minneapolis Center
03:07PM 42.3386 -92.7161 252° West 398 458 34,000 -300 Descending Minneapolis Center
03:08PM 42.3047 -92.8525 251° West 390 449 34,000  Level Minneapolis Center
03:09PM 42.2706 -92.9847 251° West 380 437 34,000  Level Minneapolis Center
03:10PM 42.2367 -93.1172 251° West 378 435 34,000  Level Minneapolis Center
03:12PM 42.2033 -93.2483 251° West 374 430 34,000  Level Minneapolis Center
03:13PM 42.1700 -93.3789 251° West 373 429 34,000  Level Minneapolis Center
03:14PM 42.1303 -93.5358 251° West 372 428 34,000 -540 Level Minneapolis Center
03:15PM 42.0906 -93.6936 251° West 375 432 32,900 -1,260 Descending Minneapolis Center
03:16PM 42.0550 -93.8267 250° West 381 438 31,500 -1,440 Descending Minneapolis Center
03:17PM 42.0181 -93.9739 251° West 386 444 30,000 -1,440 Descending Minneapolis Center
03:18PM 41.9836 -94.1047 251° West 375 432 28,600 -1,380 Descending Minneapolis Center
03:19PM 41.9486 -94.2328 250° West 367 422 27,200 -1,380 Descending Minneapolis Center
03:20PM 41.9169 -94.3558 251° West 353 406 25,800 -1,380 Descending Minneapolis Center
03:21PM 41.8825 -94.4739 249° West 341 392 24,400 -1,380 Descending Minneapolis Center
03:22PM 41.8283 -94.5694 233° Southwest 323 372 23,000 -1,440 Descending Minneapolis Center
03:23PM 41.7747 -94.6639 233° Southwest 318 366 21,500 -1,500 Descending Minneapolis Center
03:24PM 41.7242 -94.7547 233° Southwest 308 354 20,000 -1,620 Descending Minneapolis Center
03:25PM 41.6656 -94.8622 234° Southwest 298 343 18,200 -1,860 Descending Minneapolis Center
03:26PM 41.6461 -94.9269 248° West 296 341 17,000 -1,800 Descending Minneapolis Center
03:26PM 41.6153 -94.9494 209° Southwest 296 341 16,400 -1,140 Descending Minneapolis Center
03:27PM 41.5958 -95.0117 247° West 292 336 15,900 -1,020 Descending Minneapolis Center
03:27PM 41.5769 -95.0400 228° Southwest 286 329 15,400 -1,800 Descending Minneapolis Center
03:28PM 41.5761 -95.1175 269° West 293 337 14,100 -2,220 Descending Minneapolis Center
03:28PM 41.5600 -95.1475 234° Southwest 295 339 13,200 -1,980 Descending Minneapolis Center
03:29PM 41.5564 -95.2203 266° West 285 328 12,100 -1,980 Descending Minneapolis Center
03:29PM 41.5414 -95.2475 234° Southwest 285 328 11,200 -2,040 Descending Minneapolis Center
03:30PM 41.5378 -95.3092 266° West 276 318 10,300 -1,980 Descending Minneapolis Center
03:30PM 41.5228 -95.3464 242° Southwest 279 321 9,200 -1,980 Descending Minneapolis Center
03:31PM 41.5150 -95.4039 260° West 268 308 8,300 -1,680 Descending Minneapolis Center
03:31PM 41.4983 -95.4403 239° Southwest 274 315 7,200 -1,980 Descending Minneapolis Center
03:32PM 41.4689 -95.5525 251° West 270 311 4,800 -1,620 Descending Minneapolis Center
03:33PM 41.4444 -95.6636 254° West 266 306 4,000 -840 Descending Minneapolis Center
03:34PM 41.4311 -95.7306 255° West 218 251 3,200 -720 Descending Minneapolis Center
03:36PM 41.4150 -95.8006 253° West 201 231 2,400 -360 Descending Minneapolis Center
03:37PM 41.3906 -95.8808 248° West 172 198 2,500 -180 Climbing Minneapolis Center
03:38PM 41.3681 -95.9125 227° Southwest 178 205 2,100 -600 Descending Minneapolis Center
03:39PM 41.3281 -95.9186 187° South 108 124 1,400 -780 Descending Minneapolis Center
03:41PM 41.3032 -95.8941 124° Southeast  Level Estimated